• pl
  • eng

Awiacja
Kliknij na pogrubioną czerwoną nazwę, aby odkodować depeszę. 23:01 17.10.2018
  • WIND
  • SIGNIFICANT EURO
  • SIGNIFICANT
  • SIGMET
  • AIRMET
  • TAF FC
  • TAF FT
  • METAR GG30
  • METAR GG00


METAR EPBY 172100Z 09004KT CAVOK 11/07 Q1020 =

METAR EPGD 172100Z 31003KT 5000 BR NSC 10/08 Q1021 =

METAR EPKK 172100Z VRB02KT CAVOK 13/09 Q1021 =

METAR EPKT 172100Z 08003KT CAVOK 11/09 Q1021 =

METAR EPLB 172100Z 10003KT 5000 BR NSC 06/05 Q1022 =

METAR EPLL 172100Z 08001KT 8000 NSC 12/09 Q1021 =

METAR EPMO 172100Z 08002KT CAVOK 08/06 Q1021 =

METAR EPPO 172100Z 08002KT 9000 NSC 09/07 Q1020 =

METAR EPRA 172100Z NIL=

METAR EPRZ 172100Z VRB01KT 7000 NSC 07/05 Q1021 =

METAR EPSC 172100Z 08002KT 8000 NSC 08/07 Q1020 =

METAR EPSY 172100Z NIL=

METAR EPWA 172100Z 14002KT CAVOK 08/06 Q1021 NOSIG=

METAR EPWR 172100Z 13003KT CAVOK 10/09 Q1020 =

METAR EPZG 172100Z 00000KT 3000 BCFG BR NSC 07/07 Q1020 =
 METAR EPMO
Lokalizacja:EPMO Modlin
Czas:21:00 UTC
Średni kierunek wiatru:80 °
Średnia prędkość wiatru:2 węzłów
CAVOK:Widzialność 10 km i więcej, zjawisko: NIL, zachmurzenie: NSC
Temperatura powietrza:8 °C
Temperatura punktu rosy:6 °C
Ciśnienie QNH:1021 hPa
Awiacja.imgw.pl jest pogodowym serwisem informacyjnym
Instytutu Meteorologii i Gospodarki Wodnej Państwowego Instytutu Badawczego.
Copyright IMGW PIB 2009-2011© Wszelkie prawa zastrzeżone.